createdAt,value
2018-06-02T00:01:59.178Z,82.78
2018-06-02T00:04:27.453Z,82.51
2018-06-02T00:06:55.734Z,82.31
2018-06-02T00:09:24.006Z,82.68
2018-06-02T00:11:52.281Z,83.41
2018-06-02T00:14:20.550Z,82.92
2018-06-02T00:16:49.296Z,82.84
2018-06-02T00:19:19.049Z,82.73
2018-06-02T00:21:47.313Z,82.89
2018-06-02T00:24:15.598Z,82.74
2018-06-02T00:26:43.867Z,82.36
2018-06-02T00:29:12.150Z,82.45
2018-06-02T00:31:40.422Z,82.73
2018-06-02T00:34:09.023Z,82.58
2018-06-02T00:36:37.290Z,82.20
2018-06-02T00:39:05.572Z,82.59
2018-06-02T00:41:33.838Z,82.52
2018-06-02T00:44:02.118Z,82.32
2018-06-02T00:46:30.390Z,82.54
2018-06-02T00:48:58.678Z,82.15
2018-06-02T00:51:26.954Z,82.74
2018-06-02T00:53:55.249Z,82.58
2018-06-02T00:56:23.523Z,82.60
2018-06-02T00:58:51.793Z,82.96
2018-06-02T01:01:20.112Z,83.19
2018-06-02T01:03:48.392Z,82.62
2018-06-02T01:06:16.677Z,82.96
2018-06-02T01:08:44.950Z,82.49
2018-06-02T01:11:13.222Z,81.83
2018-06-02T01:13:41.494Z,82.80
2018-06-02T01:16:09.774Z,81.96
2018-06-02T01:18:38.050Z,81.66
2018-06-02T01:21:06.325Z,82.02
2018-06-02T01:23:34.593Z,82.63
2018-06-02T01:26:02.866Z,82.07
2018-06-02T01:28:31.133Z,81.84
2018-06-02T01:30:59.413Z,82.28
2018-06-02T01:33:27.682Z,81.97
2018-06-02T01:35:55.954Z,82.11
2018-06-02T01:38:24.230Z,81.63
2018-06-02T01:40:52.517Z,82.22
2018-06-02T01:43:20.793Z,81.86
2018-06-02T01:45:49.721Z,81.95
2018-06-02T01:48:18.002Z,81.66
2018-06-02T01:50:46.287Z,81.93
2018-06-02T01:53:14.565Z,82.02
2018-06-02T01:55:42.858Z,81.75
2018-06-02T01:58:11.130Z,82.09
2018-06-02T02:00:39.402Z,81.88
2018-06-02T02:03:07.681Z,81.52
2018-06-02T02:05:35.964Z,81.96
2018-06-02T02:08:04.286Z,81.91
2018-06-02T02:10:32.566Z,81.86
2018-06-02T02:13:00.853Z,82.03
2018-06-02T02:15:29.129Z,82.14
2018-06-02T02:17:57.418Z,81.79
2018-06-02T02:20:26.466Z,82.02
2018-06-02T02:22:54.748Z,82.07
2018-06-02T02:25:23.019Z,81.91
2018-06-02T02:27:51.305Z,82.72
2018-06-02T02:30:19.578Z,81.93
2018-06-02T02:32:47.862Z,82.65
2018-06-02T02:35:16.139Z,82.59
2018-06-02T02:37:44.426Z,83.00
2018-06-02T02:40:12.699Z,82.55
2018-06-02T02:42:41.012Z,82.02
2018-06-02T02:45:09.290Z,81.45
2018-06-02T02:47:37.566Z,81.80
2018-06-02T02:50:05.857Z,82.24
2018-06-02T02:52:34.117Z,82.12
2018-06-02T02:55:02.406Z,81.76
2018-06-02T02:57:30.697Z,81.01
2018-06-02T02:59:58.990Z,81.80
2018-06-02T03:02:27.273Z,80.82
2018-06-02T03:04:55.561Z,80.01
2018-06-02T03:07:23.845Z,79.63
2018-06-02T03:09:52.134Z,80.95
2018-06-02T03:12:20.414Z,80.77
2018-06-02T03:14:48.707Z,80.51
2018-06-02T03:17:16.991Z,80.33
2018-06-02T03:19:45.274Z,80.85
2018-06-02T03:22:13.558Z,80.48
2018-06-02T03:24:41.842Z,81.17
2018-06-02T03:27:10.124Z,81.58
2018-06-02T03:29:38.414Z,81.37
2018-06-02T03:32:06.690Z,81.14
2018-06-02T03:34:34.977Z,80.98
2018-06-02T03:37:03.257Z,81.84
2018-06-02T03:39:32.406Z,81.91
2018-06-02T03:42:00.682Z,81.95
2018-06-02T03:44:28.974Z,81.90
2018-06-02T03:46:57.270Z,81.85
2018-06-02T03:49:25.566Z,82.01
2018-06-02T03:51:53.847Z,81.94
2018-06-02T03:54:22.133Z,81.81
2018-06-02T03:56:50.424Z,82.24
2018-06-02T03:59:18.714Z,82.47
2018-06-02T04:01:46.991Z,81.89
2018-06-02T04:04:16.142Z,82.02
2018-06-02T04:06:44.434Z,81.38
2018-06-02T04:09:12.709Z,81.11
2018-06-02T04:11:41.001Z,81.14
2018-06-02T04:14:09.282Z,81.34
2018-06-02T04:16:37.574Z,82.57
2018-06-02T04:19:05.849Z,81.21
2018-06-02T04:21:34.856Z,82.08
2018-06-02T04:24:03.108Z,81.98
2018-06-02T04:26:31.394Z,82.32
2018-06-02T04:28:59.687Z,82.27
2018-06-02T04:31:27.982Z,82.27
2018-06-02T04:33:56.254Z,81.90
2018-06-02T04:36:24.545Z,82.58
2018-06-02T04:38:52.827Z,82.51
2018-06-02T04:41:21.115Z,81.88
2018-06-02T04:43:49.402Z,81.95
2018-06-02T04:46:17.688Z,82.08
2018-06-02T04:48:46.062Z,81.94
2018-06-02T04:51:14.349Z,81.16
2018-06-02T04:53:42.638Z,81.93
2018-06-02T04:56:10.910Z,82.72
2018-06-02T04:58:39.718Z,82.93
2018-06-02T05:01:07.994Z,82.54
2018-06-02T05:03:36.282Z,82.84
2018-06-02T05:06:04.562Z,83.58
2018-06-02T05:08:32.850Z,83.35
2018-06-02T05:11:01.142Z,83.90
2018-06-02T05:13:29.434Z,83.95
2018-06-02T05:15:58.423Z,84.01
2018-06-02T05:18:26.737Z,83.28
2018-06-02T05:20:55.010Z,83.06
2018-06-02T05:23:23.296Z,83.76
2018-06-02T05:25:51.573Z,83.18
2018-06-02T05:28:19.866Z,83.77
2018-06-02T05:30:48.149Z,84.06
2018-06-02T05:33:16.451Z,84.33
2018-06-02T05:35:44.730Z,85.43
2018-06-02T05:38:13.018Z,83.39
2018-06-02T05:40:41.317Z,82.99
2018-06-02T05:43:09.596Z,82.79
2018-06-02T05:45:37.881Z,83.47
2018-06-02T05:48:06.162Z,82.56
2018-06-02T05:50:34.449Z,83.03
2018-06-02T05:53:02.730Z,82.90
2018-06-02T05:55:31.043Z,82.88
2018-06-02T05:57:59.326Z,83.22
2018-06-02T06:00:27.622Z,82.83
2018-06-02T06:02:55.899Z,83.23
2018-06-02T06:05:24.186Z,83.50
2018-06-02T06:07:52.470Z,83.58
2018-06-02T06:10:20.760Z,82.21
2018-06-02T06:12:49.050Z,82.20
2018-06-02T06:15:17.334Z,83.08
2018-06-02T06:17:45.613Z,82.40
2018-06-02T06:20:13.910Z,83.25
2018-06-02T06:22:42.190Z,83.53
2018-06-02T06:25:10.466Z,84.97
2018-06-02T06:27:38.755Z,84.09
2018-06-02T06:30:07.033Z,83.18
2018-06-02T06:32:35.325Z,82.84
2018-06-02T06:35:03.601Z,83.23
2018-06-02T06:37:31.890Z,82.02
2018-06-02T06:40:00.178Z,84.74
2018-06-02T06:42:28.461Z,84.50
2018-06-02T06:44:56.766Z,83.35
2018-06-02T06:47:25.058Z,83.09
2018-06-02T06:49:53.334Z,82.22
2018-06-02T06:52:21.618Z,81.07
2018-06-02T06:54:49.909Z,81.22
2018-06-02T06:57:18.197Z,79.92
2018-06-02T06:59:46.490Z,81.35
2018-06-02T07:02:14.802Z,80.22
2018-06-02T07:04:43.087Z,80.22
2018-06-02T07:07:11.377Z,80.01
2018-06-02T07:09:39.654Z,80.78
2018-06-02T07:12:07.938Z,76.59
2018-06-02T07:14:36.222Z,77.58
2018-06-02T07:17:04.506Z,77.81
2018-06-02T07:19:32.789Z,78.74
2018-06-02T07:22:01.069Z,77.18
2018-06-02T07:24:29.370Z,74.15
2018-06-02T07:26:57.649Z,75.60
2018-06-02T07:29:25.925Z,75.37
2018-06-02T07:31:54.212Z,75.13
2018-06-02T07:34:22.489Z,75.88
2018-06-02T07:36:50.789Z,76.45
2018-06-02T07:39:19.065Z,76.64
2018-06-02T07:41:47.342Z,75.13
2018-06-02T07:44:15.665Z,75.00
2018-06-02T07:46:44.025Z,70.60
2018-06-02T07:49:12.314Z,70.68
2018-06-02T07:51:40.599Z,64.62
2018-06-02T07:54:08.877Z,66.51
2018-06-02T07:56:37.157Z,65.66
2018-06-02T07:59:05.445Z,67.61
2018-06-02T08:01:33.737Z,70.58
2018-06-02T08:04:02.017Z,70.02
2018-06-02T08:06:30.298Z,70.94
2018-06-02T08:08:58.593Z,71.60
2018-06-02T08:11:26.873Z,72.07
2018-06-02T08:13:55.158Z,73.16
2018-06-02T08:16:23.445Z,68.90
2018-06-02T08:18:51.718Z,68.65
2018-06-02T08:21:19.998Z,69.51
2018-06-02T08:23:48.268Z,66.64
2018-06-02T08:26:16.549Z,65.42
2018-06-02T08:28:44.825Z,66.66
2018-06-02T08:31:13.096Z,66.00
2018-06-02T08:33:41.411Z,65.88
2018-06-02T08:36:09.670Z,71.37
2018-06-02T08:38:37.961Z,67.19
2018-06-02T08:41:06.233Z,68.18
2018-06-02T08:43:34.514Z,62.67
2018-06-02T08:46:02.793Z,62.81
2018-06-02T08:48:31.073Z,63.99
2018-06-02T08:50:59.355Z,66.46
2018-06-02T08:53:27.625Z,67.04
2018-06-02T08:55:55.927Z,69.12
2018-06-02T08:58:24.198Z,67.46
2018-06-02T09:00:52.486Z,67.03
2018-06-02T09:03:20.762Z,65.08
2018-06-02T09:05:49.030Z,62.03
2018-06-02T09:08:17.305Z,64.15
2018-06-02T09:10:45.587Z,66.89
2018-06-02T09:13:13.865Z,64.27
2018-06-02T09:15:42.145Z,59.62
2018-06-02T09:18:10.737Z,61.05
2018-06-02T09:20:39.018Z,62.68
2018-06-02T09:23:09.237Z,64.29
2018-06-02T09:25:37.518Z,65.79
2018-06-02T09:28:05.794Z,67.27
2018-06-02T09:30:34.090Z,68.15
2018-06-02T09:33:02.374Z,67.33
2018-06-02T09:35:30.642Z,69.05
2018-06-02T09:37:58.931Z,69.17
2018-06-02T09:40:27.205Z,68.10
2018-06-02T09:42:55.485Z,66.98
2018-06-02T09:45:23.749Z,67.37
2018-06-02T09:47:52.031Z,66.77
2018-06-02T09:50:20.345Z,67.40
2018-06-02T09:52:48.640Z,67.39
2018-06-02T09:55:16.915Z,67.97
2018-06-02T09:57:45.195Z,67.69
2018-06-02T10:00:13.478Z,67.67
2018-06-02T10:02:41.761Z,66.56
2018-06-02T10:05:10.037Z,66.34
2018-06-02T10:07:38.318Z,65.24
2018-06-02T10:10:06.603Z,64.79
2018-06-02T10:12:34.882Z,62.04
2018-06-02T10:15:03.153Z,60.21
2018-06-02T10:17:31.434Z,60.14
2018-06-02T10:19:59.705Z,62.31
2018-06-02T10:22:28.030Z,61.05
2018-06-02T10:24:56.306Z,62.50
2018-06-02T10:27:24.584Z,61.76
2018-06-02T10:29:52.861Z,61.57
2018-06-02T10:32:21.133Z,62.65
2018-06-02T10:34:49.417Z,65.51
2018-06-02T10:37:17.689Z,63.54
2018-06-02T10:42:43.646Z,63.49
2018-06-02T10:45:11.925Z,62.88
2018-06-02T10:47:40.193Z,62.59
2018-06-02T10:50:08.474Z,61.43
2018-06-02T10:52:36.822Z,62.25
2018-06-02T10:55:05.401Z,60.95
2018-06-02T10:57:33.846Z,61.68
2018-06-02T11:00:02.425Z,62.44
2018-06-02T11:02:30.701Z,61.38
2018-06-02T11:04:58.978Z,61.16
2018-06-02T11:07:27.252Z,60.85
2018-06-02T11:09:55.526Z,59.89
2018-06-02T11:12:23.798Z,59.96
2018-06-02T11:14:53.625Z,60.22
2018-06-02T11:17:22.340Z,59.64
2018-06-02T11:19:50.993Z,59.33
2018-06-02T11:22:19.473Z,60.29
2018-06-02T11:24:48.103Z,60.18
2018-06-02T11:27:16.656Z,61.18
2018-06-02T11:29:45.151Z,60.00
2018-06-02T11:32:13.784Z,60.58
2018-06-02T11:34:42.839Z,60.98
2018-06-02T11:37:11.420Z,62.45
2018-06-02T11:39:39.957Z,60.16
2018-06-02T11:42:08.632Z,59.39
2018-06-02T11:44:37.261Z,60.69
2018-06-02T11:47:05.930Z,60.75
2018-06-02T11:49:34.909Z,62.61
2018-06-02T11:52:03.453Z,61.99
2018-06-02T11:54:32.105Z,62.28
2018-06-02T11:57:00.644Z,60.76
2018-06-02T11:59:29.196Z,60.23
2018-06-02T12:01:57.816Z,60.40
2018-06-02T12:04:26.648Z,59.09
2018-06-02T12:06:55.443Z,59.56
2018-06-02T12:09:23.976Z,60.35
2018-06-02T12:11:52.512Z,58.96
2018-06-02T12:14:21.200Z,61.00
2018-06-02T12:16:49.707Z,59.09
2018-06-02T12:19:18.399Z,57.67
2018-06-02T12:21:46.922Z,57.23
2018-06-02T12:24:15.502Z,58.16
2018-06-02T12:26:44.105Z,60.65
2018-06-02T12:29:12.801Z,57.50
2018-06-02T12:31:41.394Z,56.46
2018-06-02T12:34:09.919Z,56.60
2018-06-02T12:36:39.320Z,56.63
2018-06-02T12:39:07.894Z,57.23
2018-06-02T12:41:36.489Z,57.58
2018-06-02T12:44:04.995Z,57.64
2018-06-02T12:46:33.658Z,56.45
2018-06-02T12:49:02.162Z,57.64
2018-06-02T12:51:30.677Z,58.39
2018-06-02T12:53:59.269Z,58.52
2018-06-02T12:56:27.758Z,57.51
2018-06-02T12:58:56.649Z,56.57
2018-06-02T13:01:24.905Z,57.26
2018-06-02T13:03:53.191Z,55.80
2018-06-02T13:06:21.906Z,55.45
2018-06-02T13:08:50.182Z,55.07
2018-06-02T13:11:18.449Z,54.77
2018-06-02T13:13:46.729Z,54.22
2018-06-02T13:16:15.002Z,54.50
2018-06-02T13:18:43.285Z,54.14
2018-06-02T13:21:11.598Z,53.84
2018-06-02T13:23:39.844Z,54.58
2018-06-02T13:26:08.110Z,52.78
2018-06-02T13:28:36.741Z,53.59
2018-06-02T13:31:05.010Z,56.36
2018-06-02T13:33:33.315Z,56.04
2018-06-02T13:36:01.605Z,55.23
2018-06-02T13:38:29.870Z,57.30
2018-06-02T13:40:58.151Z,55.14
2018-06-02T13:43:26.435Z,54.80
2018-06-02T13:45:54.710Z,53.85
2018-06-02T13:48:22.977Z,55.19
2018-06-02T13:50:51.266Z,53.94
2018-06-02T13:53:19.581Z,54.20
2018-06-02T13:55:47.863Z,53.94
2018-06-02T13:58:16.747Z,54.31
2018-06-02T14:00:45.302Z,54.85
2018-06-02T14:03:13.577Z,55.56
2018-06-02T14:05:41.846Z,55.23
2018-06-02T14:08:10.129Z,55.96
2018-06-02T14:10:38.398Z,54.51
2018-06-02T14:13:06.681Z,54.60
2018-06-02T14:15:34.946Z,54.59
2018-06-02T14:18:03.222Z,54.34
2018-06-02T14:20:31.495Z,54.33
2018-06-02T14:22:59.771Z,56.22
2018-06-02T14:25:28.087Z,56.18
2018-06-02T14:27:56.322Z,54.42
2018-06-02T14:30:24.587Z,54.17
2018-06-02T14:32:52.862Z,54.61
2018-06-02T14:35:21.139Z,54.88
2018-06-02T14:40:28.878Z,55.14
2018-06-02T14:42:57.151Z,54.48
2018-06-02T14:45:25.430Z,55.30
2018-06-02T14:47:53.712Z,54.03
2018-06-02T14:50:21.990Z,54.89
2018-06-02T14:52:50.258Z,54.86
2018-06-02T14:55:18.558Z,55.88
2018-06-02T14:57:46.806Z,54.35
2018-06-02T15:00:15.121Z,52.43
2018-06-02T15:02:43.389Z,51.56
2018-06-02T15:05:12.482Z,52.86
2018-06-02T15:07:40.758Z,53.69
2018-06-02T15:10:09.031Z,52.10
2018-06-02T15:12:37.305Z,54.02
2018-06-02T15:15:05.574Z,52.55
2018-06-02T15:17:33.849Z,53.11
2018-06-02T15:20:02.129Z,53.00
2018-06-02T15:22:30.403Z,54.27
2018-06-02T15:24:58.687Z,55.56
2018-06-02T15:27:26.954Z,55.34
2018-06-02T15:29:55.217Z,55.90
2018-06-02T15:32:23.503Z,55.12
2018-06-02T15:34:51.781Z,55.67
2018-06-02T15:37:20.319Z,54.60
2018-06-02T15:39:48.586Z,55.08
2018-06-02T15:42:16.849Z,55.95
2018-06-02T15:44:45.153Z,55.41
2018-06-02T15:47:13.426Z,56.41
2018-06-02T15:49:41.698Z,55.38
2018-06-02T15:52:09.969Z,55.86
2018-06-02T15:54:38.250Z,56.14
2018-06-02T15:57:06.526Z,57.25
2018-06-02T15:59:34.802Z,55.86
2018-06-02T16:02:03.070Z,54.35
2018-06-02T16:04:31.354Z,54.68
2018-06-02T16:06:59.631Z,54.11
2018-06-02T16:09:27.914Z,55.22
2018-06-02T16:11:56.186Z,55.05
2018-06-02T16:14:24.462Z,55.79
2018-06-02T16:16:52.738Z,54.06
2018-06-02T16:19:21.012Z,54.36
2018-06-02T16:21:49.293Z,53.43
2018-06-02T16:24:17.558Z,53.24
2018-06-02T16:26:45.850Z,53.16
2018-06-02T16:29:14.118Z,52.34
2018-06-02T16:31:42.394Z,52.30
2018-06-02T16:34:10.674Z,52.24
2018-06-02T16:36:38.945Z,52.54
2018-06-02T16:39:07.216Z,51.53
2018-06-02T16:41:35.502Z,51.42
2018-06-02T16:44:03.770Z,51.39
2018-06-02T16:46:32.050Z,50.73
2018-06-02T16:49:00.317Z,49.67
2018-06-02T16:51:28.602Z,50.11
2018-06-02T16:53:56.878Z,50.20
2018-06-02T16:56:25.150Z,49.96
2018-06-02T16:58:53.426Z,49.79
2018-06-02T17:01:21.694Z,51.17
2018-06-02T17:03:49.970Z,52.06
2018-06-02T17:06:18.249Z,52.16
2018-06-02T17:08:46.522Z,53.25
2018-06-02T17:11:14.794Z,53.27
2018-06-02T17:13:43.074Z,53.25
2018-06-02T17:16:11.350Z,54.52
2018-06-02T17:18:39.626Z,54.96
2018-06-02T17:21:07.897Z,54.73
2018-06-02T17:23:36.194Z,55.32
2018-06-02T17:26:04.463Z,55.63
2018-06-02T17:28:32.730Z,55.63
2018-06-02T17:31:01.038Z,56.77
2018-06-02T17:33:29.302Z,57.09
2018-06-02T17:35:57.638Z,57.42
2018-06-02T17:38:25.938Z,57.07
2018-06-02T17:40:54.225Z,57.21
2018-06-02T17:43:22.502Z,57.18
2018-06-02T17:45:50.786Z,57.30
2018-06-02T17:48:19.058Z,57.09
2018-06-02T17:50:47.329Z,56.85
2018-06-02T17:53:15.615Z,57.83
2018-06-02T17:55:43.893Z,57.30
2018-06-02T17:58:12.163Z,57.32
2018-06-02T18:00:40.447Z,57.27
2018-06-02T18:03:08.719Z,58.18
2018-06-02T18:05:36.989Z,59.32
2018-06-02T18:08:05.270Z,59.28
2018-06-02T18:10:33.546Z,58.55
2018-06-02T18:13:01.831Z,58.52
2018-06-02T18:15:30.101Z,59.40
2018-06-02T18:17:58.391Z,59.47
2018-06-02T18:20:26.661Z,60.76
2018-06-02T18:22:54.937Z,60.51
2018-06-02T18:25:23.209Z,60.76
2018-06-02T18:27:51.494Z,60.45
2018-06-02T18:30:19.758Z,59.43
2018-06-02T18:32:48.038Z,60.35
2018-06-02T18:35:16.313Z,60.29
2018-06-02T18:37:44.599Z,61.16
2018-06-02T18:40:12.870Z,60.36
2018-06-02T18:42:41.292Z,60.89
2018-06-02T18:45:09.573Z,60.49
2018-06-02T18:47:37.857Z,60.90
2018-06-02T18:50:06.126Z,61.61
2018-06-02T18:52:34.414Z,62.02
2018-06-02T18:55:02.694Z,61.54
2018-06-02T18:57:30.962Z,61.92
2018-06-02T19:00:00.495Z,62.34
2018-06-02T19:02:29.042Z,63.57
2018-06-02T19:04:57.343Z,63.71
2018-06-02T19:07:25.626Z,64.61
2018-06-02T19:09:53.901Z,64.69
2018-06-02T19:12:22.167Z,64.98
2018-06-02T19:14:50.445Z,65.65
2018-06-02T19:17:18.711Z,65.55
2018-06-02T19:19:47.000Z,66.42
2018-06-02T19:22:15.286Z,65.21
2018-06-02T19:24:43.547Z,65.48
2018-06-02T19:27:17.577Z,65.72
2018-06-02T19:29:46.017Z,66.35
2018-06-02T19:32:14.297Z,66.39
2018-06-02T19:34:42.594Z,66.05
2018-06-02T19:37:10.863Z,67.19
2018-06-02T19:39:39.138Z,66.97
2018-06-02T19:42:07.419Z,66.45
2018-06-02T19:44:35.737Z,67.30
2018-06-02T19:47:04.028Z,67.18
2018-06-02T19:49:32.302Z,68.43
2018-06-02T19:52:00.578Z,68.54
2018-06-02T19:54:28.860Z,68.64
2018-06-02T19:56:57.141Z,68.84
2018-06-02T19:59:25.414Z,69.46
2018-06-02T20:01:53.690Z,69.84
2018-06-02T20:04:21.964Z,70.30
2018-06-02T20:06:50.240Z,69.50
2018-06-02T20:09:18.511Z,69.09
2018-06-02T20:11:46.787Z,70.39
2018-06-02T20:14:15.054Z,71.05
2018-06-02T20:16:43.334Z,70.04
2018-06-02T20:19:11.602Z,69.55
2018-06-02T20:21:39.874Z,71.03
2018-06-02T20:24:08.150Z,70.38
2018-06-02T20:26:36.420Z,70.06
2018-06-02T20:29:05.030Z,70.54
2018-06-02T20:31:33.302Z,70.65
2018-06-02T20:34:01.586Z,70.37
2018-06-02T20:36:29.867Z,70.68
2018-06-02T20:38:58.830Z,71.54
2018-06-02T20:41:27.098Z,71.75
2018-06-02T20:43:55.377Z,71.75
2018-06-02T20:46:23.646Z,71.67
2018-06-02T20:48:51.926Z,71.30
2018-06-02T20:51:20.197Z,71.92
2018-06-02T20:53:48.478Z,71.73
2018-06-02T20:56:16.745Z,71.66
2018-06-02T20:58:45.022Z,73.47
2018-06-02T21:01:13.296Z,72.43
2018-06-02T21:03:41.572Z,73.31
2018-06-02T21:06:09.845Z,71.71
2018-06-02T21:08:38.394Z,72.13
2018-06-02T21:11:06.666Z,71.44
2018-06-02T21:13:34.934Z,71.88
2018-06-02T21:16:03.215Z,71.58
2018-06-02T21:18:31.491Z,71.89
2018-06-02T21:20:59.786Z,72.22
2018-06-02T21:23:28.058Z,70.98
2018-06-02T21:25:56.341Z,71.04
2018-06-02T21:28:24.615Z,71.23
2018-06-02T21:30:52.898Z,71.71
2018-06-02T21:33:21.175Z,72.24
2018-06-02T21:35:49.454Z,71.78
2018-06-02T21:38:17.727Z,71.66
2018-06-02T21:40:46.007Z,71.97
2018-06-02T21:43:14.283Z,71.64
2018-06-02T21:45:42.569Z,71.39
2018-06-02T21:48:10.837Z,72.10
2018-06-02T21:50:39.102Z,71.84
2018-06-02T21:53:07.378Z,72.23
2018-06-02T21:55:35.654Z,72.21
2018-06-02T21:58:03.930Z,71.83
2018-06-02T22:00:32.230Z,72.49
2018-06-02T22:03:00.510Z,72.17
2018-06-02T22:05:28.774Z,71.53
2018-06-02T22:07:57.054Z,72.11
2018-06-02T22:10:25.334Z,72.65
2018-06-02T22:12:53.616Z,72.26
2018-06-02T22:15:21.886Z,73.14
2018-06-02T22:17:50.197Z,72.78
2018-06-02T22:20:18.470Z,72.44
2018-06-02T22:22:46.746Z,72.58
2018-06-02T22:25:15.014Z,72.73
2018-06-02T22:27:43.307Z,72.74
2018-06-02T22:30:11.570Z,72.42
2018-06-02T22:32:39.847Z,73.13
2018-06-02T22:35:08.126Z,73.45
2018-06-02T22:37:36.398Z,73.85
2018-06-02T22:40:04.675Z,73.92
2018-06-02T22:42:32.942Z,73.60
2018-06-02T22:45:01.226Z,74.00
2018-06-02T22:47:29.506Z,73.86
2018-06-02T22:49:57.810Z,74.02
2018-06-02T22:52:26.070Z,74.64
2018-06-02T22:54:54.347Z,73.91
2018-06-02T22:57:22.613Z,74.21
2018-06-02T22:59:50.890Z,74.72
2018-06-02T23:02:19.157Z,74.14
2018-06-02T23:04:47.159Z,74.16
2018-06-02T23:07:15.154Z,74.88
2018-06-02T23:09:43.150Z,75.00
2018-06-02T23:12:11.142Z,74.68
2018-06-02T23:14:39.138Z,75.12
2018-06-02T23:17:07.137Z,75.61
2018-06-02T23:19:35.114Z,75.02
2018-06-02T23:22:03.115Z,75.30
2018-06-02T23:24:31.098Z,76.05
2018-06-02T23:26:59.128Z,76.02
2018-06-02T23:29:27.102Z,75.92
2018-06-02T23:31:55.097Z,76.07
2018-06-02T23:34:23.086Z,76.05
2018-06-02T23:36:51.102Z,76.44
2018-06-02T23:39:19.090Z,76.83
2018-06-02T23:41:47.097Z,76.78
2018-06-02T23:44:15.093Z,76.30
2018-06-02T23:46:43.086Z,75.92
2018-06-02T23:49:11.069Z,76.62
2018-06-02T23:51:39.078Z,76.76
2018-06-02T23:54:07.066Z,77.32
2018-06-02T23:56:35.073Z,76.36
2018-06-02T23:59:03.064Z,76.28
